Time;durP1;ratioP1;P1;durP2;ratioP2;P2;SDS_P1;SDS_P2;PMS_P1;PMS_P2;Temp;Humidity;BMP_temperature;BMP_pressure;BME280_temperature;BME280_humidity;BME280_pressure;Samples;Min_cycle;Max_cycle;Signal;HPM_P1;HPM_P2
2021/10/08 00:01:01;;;;;;;216.57;34.67;;;;;;;8.11;100.00;103089.22;2613431;36;20438;-66
2021/10/08 00:03:29;;;;;;;69.88;29.83;;;;;;;8.16;100.00;103089.03;2613708;36;20046;-65
2021/10/08 00:05:57;;;;;;;82.55;30.27;;;;;;;8.31;100.00;103087.50;2614417;36;20121;-66
2021/10/08 00:08:26;;;;;;;177.15;33.92;;;;;;;8.28;100.00;103084.97;2613831;36;20129;-65
2021/10/08 00:10:54;;;;;;;86.28;30.67;;;;;;;8.34;100.00;103087.38;2612007;36;20059;-66
2021/10/08 00:13:22;;;;;;;69.13;30.08;;;;;;;8.35;100.00;103098.03;2612421;36;20145;-65
2021/10/08 00:15:50;;;;;;;166.45;32.72;;;;;;;8.33;100.00;103090.97;2612362;36;20542;-65
2021/10/08 00:18:21;;;;;;;73.43;28.27;;;;;;;8.46;100.00;103091.38;2613387;36;20041;-65
2021/10/08 00:20:49;;;;;;;100.30;29.02;;;;;;;8.36;100.00;103083.69;2613426;36;20057;-65
2021/10/08 00:23:18;;;;;;;79.93;26.77;;;;;;;8.41;100.00;103087.03;2614442;36;20037;-66
2021/10/08 00:25:46;;;;;;;86.32;28.27;;;;;;;8.38;100.00;103084.50;2614028;36;20491;-65
2021/10/08 00:28:14;;;;;;;112.57;27.67;;;;;;;8.34;100.00;103073.97;2613957;36;20568;-65
2021/10/08 00:30:42;;;;;;;48.78;24.38;;;;;;;8.28;100.00;103083.13;2614383;36;20423;-66
2021/10/08 00:33:11;;;;;;;66.50;24.17;;;;;;;8.32;100.00;103081.19;2614185;36;20041;-67
2021/10/08 00:35:42;;;;;;;51.60;24.80;;;;;;;8.33;100.00;103083.81;2614521;36;20541;-67
2021/10/08 00:38:10;;;;;;;48.85;24.83;;;;;;;8.36;100.00;103083.69;2614585;36;20142;-67
2021/10/08 00:40:42;;;;;;;43.67;23.27;;;;;;;8.41;100.00;103076.31;2614822;36;20031;-66
2021/10/08 00:43:11;;;;;;;48.38;23.98;;;;;;;8.33;100.00;103082.94;2615129;36;20085;-67
2021/10/08 00:45:41;;;;;;;74.28;25.63;;;;;;;8.28;100.00;103075.09;2615386;31;20627;-68
2021/10/08 00:48:11;;;;;;;33.88;22.45;;;;;;;8.38;100.00;103076.44;2614238;36;20145;-65
2021/10/08 00:50:45;;;;;;;87.93;25.20;;;;;;;8.32;100.00;103079.38;2614332;36;20601;-65
2021/10/08 00:53:13;;;;;;;36.50;21.23;;;;;;;8.35;100.00;103076.56;2615385;36;20080;-65
2021/10/08 00:55:44;;;;;;;53.43;21.67;;;;;;;8.33;100.00;103077.56;2614230;36;20129;-66
2021/10/08 00:58:13;;;;;;;50.85;21.77;;;;;;;8.16;100.00;103081.00;2613085;36;20069;-66
2021/10/08 01:00:43;;;;;;;58.30;22.83;;;;;;;8.20;100.00;103083.47;2613640;36;20041;-66
2021/10/08 01:03:12;;;;;;;56.65;23.10;;;;;;;8.20;100.00;103087.94;2612630;36;20077;-67
2021/10/08 01:05:44;;;;;;;58.55;22.25;;;;;;;8.05;100.00;103087.69;2614496;36;20031;-66
2021/10/08 01:08:13;;;;;;;48.05;20.10;;;;;;;8.12;100.00;103092.78;2615184;36;20130;-65
2021/10/08 01:10:42;;;;;;;65.97;22.20;;;;;;;8.00;100.00;103092.34;2613762;36;20073;-66
2021/10/08 01:13:13;;;;;;;51.35;21.92;;;;;;;7.92;100.00;103094.50;2614831;36;20137;-65
2021/10/08 01:15:42;;;;;;;69.13;23.08;;;;;;;7.90;100.00;103096.34;2614883;36;20197;-65
2021/10/08 01:18:11;;;;;;;42.05;21.95;;;;;;;7.94;100.00;103089.06;2614263;36;20535;-67
2021/10/08 01:20:42;;;;;;;32.60;20.80;;;;;;;8.10;100.00;103097.31;2614310;36;20123;-65
2021/10/08 01:23:10;;;;;;;43.20;21.27;;;;;;;8.09;100.00;103092.91;2614080;36;20050;-65
2021/10/08 01:25:39;;;;;;;45.88;22.90;;;;;;;8.10;100.00;103092.84;2613290;36;20121;-66
2021/10/08 01:28:08;;;;;;;44.72;20.25;;;;;;;8.07;100.00;103096.53;2614162;36;20152;-65
2021/10/08 01:30:36;;;;;;;;;;;;;;;8.18;100.00;103093.38;2615044;36;20121;-66
2021/10/08 01:33:06;;;;;;;41.15;20.08;;;;;;;8.12;100.00;103090.09;2614953;31;20074;-66
2021/10/08 01:35:34;;;;;;;;;;;;;;;8.09;100.00;103092.91;2614446;36;20035;-66
2021/10/08 01:38:05;;;;;;;51.25;20.30;;;;;;;8.07;100.00;103093.84;2614841;36;20466;-67
2021/10/08 01:40:33;;;;;;;40.97;19.58;;;;;;;8.04;100.00;103091.31;2614020;36;20118;-67
2021/10/08 01:43:01;;;;;;;50.88;18.67;;;;;;;8.02;100.00;103098.56;2614696;36;20181;-67
2021/10/08 01:45:30;;;;;;;56.65;20.05;;;;;;;7.99;100.00;103093.28;2614670;36;20122;-66
2021/10/08 01:47:58;;;;;;;31.67;18.25;;;;;;;8.06;100.00;103092.09;2614425;36;20523;-67
2021/10/08 01:50:26;;;;;;;55.35;19.60;;;;;;;7.95;100.00;103094.38;2614183;36;20157;-66
2021/10/08 01:52:54;;;;;;;75.07;20.58;;;;;;;7.87;100.00;103096.50;2614160;36;20030;-66
2021/10/08 01:55:25;;;;;;;42.35;19.13;;;;;;;7.96;100.00;103101.47;2613778;36;20041;-66
2021/10/08 01:57:54;;;;;;;39.90;17.88;;;;;;;7.97;100.00;103105.91;2615390;36;20582;-66
2021/10/08 02:00:22;;;;;;;69.30;20.13;;;;;;;8.01;100.00;103104.84;2613897;36;20176;-65
2021/10/08 02:02:50;;;;;;;62.40;19.98;;;;;;;8.00;100.00;103097.72;2614616;36;20125;-65
2021/10/08 02:05:20;;;;;;;39.72;18.77;;;;;;;7.95;100.00;103094.38;2615198;36;20549;-66
2021/10/08 02:07:48;;;;;;;;;;;;;;;7.94;100.00;103091.75;2614740;36;20185;-65
2021/10/08 02:10:17;;;;;;;34.92;17.80;;;;;;;7.94;100.00;103095.31;2613999;36;19957;-65
2021/10/08 02:12:48;;;;;;;59.10;19.40;;;;;;;8.01;100.00;103082.50;2614176;36;20575;-65
2021/10/08 02:15:16;;;;;;;39.72;17.23;;;;;;;7.90;100.00;103091.00;2614962;36;20517;-66
2021/10/08 02:17:44;;;;;;;38.85;18.88;;;;;;;7.84;100.00;103096.63;2614680;36;20026;-65
2021/10/08 02:20:13;;;;;;;77.10;18.98;;;;;;;7.73;100.00;103091.72;2613915;36;20076;-66
2021/10/08 02:22:42;;;;;;;31.13;17.02;;;;;;;7.78;100.00;103096.88;2614877;36;20630;-66
2021/10/08 02:25:11;;;;;;;24.33;15.93;;;;;;;7.80;100.00;103092.31;2614059;36;20034;-66
2021/10/08 02:27:39;;;;;;;26.30;17.38;;;;;;;7.60;100.00;103099.38;2614497;36;20117;-66
2021/10/08 02:30:12;;;;;;;33.97;18.10;;;;;;;7.64;100.00;103105.47;2614054;36;20118;-66
2021/10/08 02:32:40;;;;;;;27.80;16.45;;;;;;;7.69;100.00;103104.34;2614723;36;20034;-66
2021/10/08 02:35:09;;;;;;;32.58;16.40;;;;;;;7.63;100.00;103099.25;2613963;36;20041;-67
2021/10/08 02:37:37;;;;;;;;;;;;;;;7.68;100.00;103097.22;2614790;36;20114;-65
2021/10/08 02:40:08;;;;;;;37.90;17.40;;;;;;;7.61;100.00;103093.09;2614292;36;20061;-66
2021/10/08 02:42:36;;;;;;;37.13;16.85;;;;;;;7.59;100.00;103091.38;2613558;36;20038;-65
2021/10/08 02:45:05;;;;;;;73.77;18.57;;;;;;;7.54;100.00;103095.13;2614596;36;20173;-66
2021/10/08 02:47:36;;;;;;;58.83;17.75;;;;;;;7.40;100.00;103091.25;2613654;36;20153;-67
2021/10/08 02:50:04;;;;;;;57.42;18.27;;;;;;;7.26;100.00;103091.78;2614952;36;20110;-65
2021/10/08 02:52:32;;;;;;;39.88;17.38;;;;;;;7.20;100.00;103090.22;2613959;36;20554;-65
2021/10/08 02:55:00;;;;;;;38.90;16.42;;;;;;;7.15;100.00;103087.69;2614652;31;20077;-65
2021/10/08 02:57:28;;;;;;;78.22;18.83;;;;;;;7.11;100.00;103085.19;2613772;36;20130;-65
2021/10/08 02:59:57;;;;;;;29.50;16.15;;;;;;;7.19;100.00;103093.81;2613454;36;20125;-67
2021/10/08 03:02:25;;;;;;;41.92;17.73;;;;;;;7.29;100.00;103089.00;2613528;31;20196;-66
2021/10/08 03:04:56;;;;;;;22.98;15.25;;;;;;;7.31;100.00;103087.13;2614205;36;20180;-66
2021/10/08 03:07:24;;;;;;;29.15;15.57;;;;;;;7.23;100.00;103095.47;2613870;36;20129;-66
2021/10/08 03:09:52;;;;;;;38.25;16.20;;;;;;;7.27;100.00;103091.72;2613824;36;20169;-66
2021/10/08 03:12:20;;;;;;;24.20;15.73;;;;;;;7.31;100.00;103077.25;2614610;36;20157;-66
2021/10/08 03:14:48;;;;;;;33.45;15.25;;;;;;;7.23;100.00;103090.09;2614400;36;20114;-65
2021/10/08 03:17:17;;;;;;;22.02;13.98;;;;;;;7.15;100.00;103086.84;2613824;31;20030;-66
2021/10/08 03:19:47;;;;;;;38.50;16.50;;;;;;;7.05;100.00;103085.44;2613289;36;20034;-65
2021/10/08 03:22:17;;;;;;;77.13;16.10;;;;;;;7.01;100.00;103084.69;2614542;36;20080;-65
2021/10/08 03:24:46;;;;;;;21.23;13.98;;;;;;;7.10;100.00;103094.19;2613984;36;20743;-66
2021/10/08 03:27:14;;;;;;;53.73;15.63;;;;;;;7.03;100.00;103088.19;2614367;36;20121;-66
2021/10/08 03:29:42;;;;;;;27.48;13.70;;;;;;;7.06;100.00;103087.19;2614085;36;20969;-67
2021/10/08 03:32:11;;;;;;;26.15;13.30;;;;;;;7.09;100.00;103095.09;2613392;36;20513;-65
2021/10/08 03:34:39;;;;;;;20.60;12.83;;;;;;;7.10;100.00;103095.06;2613838;36;20129;-66
2021/10/08 03:37:10;;;;;;;27.95;13.55;;;;;;;7.03;100.00;103093.53;2614520;36;20385;-66
2021/10/08 03:39:43;;;;;;;25.65;13.50;;;;;;;7.07;100.00;103102.34;2612927;36;20023;-66
2021/10/08 03:42:14;;;;;;;29.70;13.40;;;;;;;7.07;100.00;103091.63;2613829;36;20466;-65
2021/10/08 03:44:45;;;;;;;52.05;14.38;;;;;;;7.09;100.00;103097.78;2614938;36;20427;-65
2021/10/08 03:47:21;;;;;;;22.80;12.65;;;;;;;7.07;100.00;103100.53;2613898;36;20053;-66
2021/10/08 03:49:51;;;;;;;32.92;12.85;;;;;;;6.96;100.00;103106.28;2613720;36;20494;-65
2021/10/08 03:52:20;;;;;;;30.23;13.43;;;;;;;6.94;100.00;103104.59;2613773;36;20129;-66
2021/10/08 03:54:50;;;;;;;38.00;12.17;;;;;;;6.93;100.00;103098.34;2613406;36;20149;-65
2021/10/08 03:57:18;;;;;;;20.55;11.13;;;;;;;6.97;100.00;103108.03;2612983;36;20173;-66
2021/10/08 04:02:14;;;;;;;32.00;13.68;;;;;;;6.89;100.00;103107.44;2612515;36;20145;-66
2021/10/08 04:04:42;;;;;;;43.53;14.55;;;;;;;6.78;100.00;103104.28;2613680;36;20162;-66
2021/10/08 04:07:10;;;;;;;34.83;14.27;;;;;;;6.81;100.00;103104.16;2613754;36;20158;-65
2021/10/08 04:09:39;;;;;;;19.30;12.80;;;;;;;6.78;100.00;103105.16;2614093;36;20153;-67
2021/10/08 04:12:10;;;;;;;23.17;13.90;;;;;;;6.83;100.00;103102.28;2614075;36;20097;-66
2021/10/08 04:14:38;;;;;;;29.70;13.20;;;;;;;6.86;100.00;103107.56;2614513;36;20042;-65
2021/10/08 04:17:06;;;;;;;58.67;14.68;;;;;;;6.82;100.00;103106.78;2613512;36;20130;-66
2021/10/08 04:19:34;;;;;;;174.15;19.13;;;;;;;6.86;100.00;103104.88;2613353;36;20165;-66
2021/10/08 04:22:02;;;;;;;32.95;13.35;;;;;;;6.88;100.00;103116.41;2614692;31;20138;-66
2021/10/08 04:24:31;;;;;;;52.95;13.88;;;;;;;6.88;100.00;103111.03;2614063;36;20182;-66
2021/10/08 04:26:59;;;;;;;21.10;12.70;;;;;;;6.83;100.00;103111.22;2614269;36;20166;-65
2021/10/08 04:29:30;;;;;;;20.23;12.10;;;;;;;6.80;100.00;103105.09;2613278;36;21626;-65
2021/10/08 04:31:58;;;;;;;46.25;13.40;;;;;;;6.81;100.00;103113.06;2613113;36;20117;-65
2021/10/08 04:34:26;;;;;;;21.05;11.73;;;;;;;6.79;100.00;103119.41;2613789;36;20129;-66
2021/10/08 04:36:54;;;;;;;43.67;14.00;;;;;;;6.76;100.00;103108.84;2614763;31;20034;-64
2021/10/08 04:39:23;;;;;;;29.77;12.93;;;;;;;6.75;100.00;103112.44;2613685;36;20145;-65
2021/10/08 04:41:51;;;;;;;40.25;14.18;;;;;;;6.77;100.00;103113.22;2614826;36;20622;-65
2021/10/08 04:44:19;;;;;;;81.38;14.43;;;;;;;6.72;100.00;103112.53;2613967;36;20192;-65
2021/10/08 04:46:50;;;;;;;104.43;15.30;;;;;;;6.74;100.00;103116.88;2613548;36;20544;-66
2021/10/08 04:49:18;;;;;;;32.38;11.77;;;;;;;6.64;100.00;103118.16;2615935;31;20633;-64
2021/10/08 04:51:46;;;;;;;122.93;16.13;;;;;;;6.68;100.00;103116.25;2614013;36;20667;-67
2021/10/08 04:54:15;;;;;;;27.27;12.32;;;;;;;6.76;100.00;103116.84;2614007;36;20432;-66
2021/10/08 04:56:43;;;;;;;81.60;15.02;;;;;;;6.78;100.00;103112.31;2613726;31;20126;-66
2021/10/08 04:59:11;;;;;;;49.15;14.00;;;;;;;6.73;100.00;103111.59;2613075;36;20696;-66
2021/10/08 05:01:39;;;;;;;55.08;13.00;;;;;;;6.70;100.00;103112.59;2612938;36;20166;-65
2021/10/08 05:04:10;;;;;;;90.60;15.18;;;;;;;6.73;100.00;103123.19;2614534;36;20190;-66
2021/10/08 05:06:38;;;;;;;183.23;18.02;;;;;;;6.74;100.00;103119.56;2614396;36;20173;-65
2021/10/08 05:09:06;;;;;;;86.10;13.40;;;;;;;6.61;100.00;103115.59;2614087;36;20646;-65
2021/10/08 05:11:35;;;;;;;74.22;13.82;;;;;;;6.69;100.00;103124.22;2613764;36;20038;-66
2021/10/08 05:14:04;;;;;;;33.17;12.35;;;;;;;6.71;100.00;103114.31;2614591;36;20126;-64
2021/10/08 05:16:32;;;;;;;48.13;12.93;;;;;;;6.71;100.00;103121.50;2613742;36;20034;-65
2021/10/08 05:19:00;;;;;;;62.00;12.90;;;;;;;6.60;100.00;103122.75;2614289;36;20114;-65
2021/10/08 05:21:31;;;;;;;41.78;13.35;;;;;;;6.51;100.00;103125.75;2613771;31;20875;-66
2021/10/08 05:24:00;;;;;;;45.83;12.40;;;;;;;6.57;100.00;103133.56;2612990;36;20122;-66
2021/10/08 05:26:28;;;;;;;41.00;12.77;;;;;;;6.50;100.00;103132.03;2614289;31;20544;-66
2021/10/08 05:28:56;;;;;;;38.53;12.23;;;;;;;6.32;100.00;103131.72;2612829;36;20161;-65
2021/10/08 05:31:25;;;;;;;18.80;10.70;;;;;;;6.30;100.00;103125.56;2614386;36;20553;-65
2021/10/08 05:33:53;;;;;;;17.83;11.55;;;;;;;6.29;100.00;103122.94;2614277;36;20145;-66
2021/10/08 05:36:21;;;;;;;20.23;11.75;;;;;;;6.36;100.00;103129.84;2614216;36;20662;-65
2021/10/08 05:38:52;;;;;;;14.95;10.77;;;;;;;6.26;100.00;103139.97;2614057;36;20121;-65
2021/10/08 05:41:20;;;;;;;22.00;12.02;;;;;;;6.15;100.00;103139.44;2612938;31;20704;-65
2021/10/08 05:43:49;;;;;;;17.85;10.80;;;;;;;6.23;100.00;103140.06;2615221;36;20031;-66
2021/10/08 05:46:17;;;;;;;14.80;10.27;;;;;;;6.24;100.00;103131.13;2613935;36;20038;-66
2021/10/08 05:48:45;;;;;;;15.52;10.85;;;;;;;6.17;100.00;103132.25;2612958;36;20395;-65
2021/10/08 05:51:13;;;;;;;14.88;10.43;;;;;;;6.05;100.00;103132.66;2614585;36;20125;-65
2021/10/08 05:53:42;;;;;;;17.65;10.48;;;;;;;6.03;100.00;103131.84;2613256;36;20129;-66
2021/10/08 05:56:12;;;;;;;17.63;10.73;;;;;;;5.92;100.00;103133.03;2613866;36;20117;-65
2021/10/08 05:58:41;;;;;;;17.88;10.00;;;;;;;5.97;100.00;103139.13;2613738;36;20063;-65
2021/10/08 06:01:09;;;;;;;18.40;10.65;;;;;;;5.91;100.00;103136.63;2613702;36;20157;-65
2021/10/08 06:03:37;;;;;;;14.85;9.70;;;;;;;5.89;100.00;103143.81;2613181;36;20154;-66
2021/10/08 06:06:05;;;;;;;14.43;9.60;;;;;;;5.93;100.00;103142.81;2614693;36;20624;-66
2021/10/08 06:08:34;;;;;;;14.73;9.48;;;;;;;5.91;100.00;103138.44;2613811;36;20570;-65
2021/10/08 06:11:02;;;;;;;15.07;9.40;;;;;;;5.93;100.00;103141.91;2613799;36;20169;-66
2021/10/08 06:13:34;;;;;;;16.73;10.43;;;;;;;5.83;100.00;103148.47;2612577;36;20146;-66
2021/10/08 06:16:03;;;;;;;19.10;11.90;;;;;;;5.97;100.00;103149.81;2613711;36;20035;-65
2021/10/08 06:18:31;;;;;;;16.50;10.15;;;;;;;6.00;100.00;103156.00;2613303;31;20110;-65
2021/10/08 06:20:59;;;;;;;16.65;10.75;;;;;;;5.91;100.00;103154.47;2614093;36;20129;-65
2021/10/08 06:23:27;;;;;;;18.25;11.57;;;;;;;5.95;100.00;103162.34;2614934;36;20419;-66
2021/10/08 06:25:56;;;;;;;18.05;10.77;;;;;;;5.94;100.00;103165.91;2614319;36;20130;-66
2021/10/08 06:28:24;;;;;;;15.40;9.52;;;;;;;6.00;100.00;103164.88;2612180;36;20412;-66
2021/10/08 06:30:55;;;;;;;15.07;9.70;;;;;;;5.99;100.00;103162.25;2610648;36;20440;-65
2021/10/08 06:33:24;;;;;;;15.40;10.48;;;;;;;5.92;100.00;103172.25;2613742;36;20900;-66
2021/10/08 06:35:52;;;;;;;16.95;10.63;;;;;;;5.94;100.00;103170.41;2613343;36;20159;-65
2021/10/08 06:38:20;;;;;;;17.05;10.45;;;;;;;5.82;100.00;103178.81;2614672;36;20153;-65
2021/10/08 06:40:48;;;;;;;17.20;10.00;;;;;;;5.83;100.00;103180.53;2614704;36;20158;-65
2021/10/08 06:43:16;;;;;;;15.30;9.90;;;;;;;5.87;100.00;103175.06;2615067;36;20114;-66
2021/10/08 06:45:45;;;;;;;15.30;9.55;;;;;;;5.87;100.00;103177.72;2614790;36;20114;-66
2021/10/08 06:48:16;;;;;;;13.25;9.23;;;;;;;5.90;100.00;103179.44;2611822;36;20106;-66
2021/10/08 06:50:44;;;;;;;13.82;9.52;;;;;;;5.93;100.00;103188.25;2613009;36;20035;-66
2021/10/08 06:53:12;;;;;;;14.27;9.07;;;;;;;6.05;100.00;103186.13;2614071;36;20114;-65
2021/10/08 06:55:41;;;;;;;14.27;9.93;;;;;;;6.04;100.00;103187.06;2612381;36;20158;-67
2021/10/08 06:58:09;;;;;;;15.48;9.98;;;;;;;6.07;100.00;103187.81;2612845;36;20065;-65
2021/10/08 07:00:37;;;;;;;16.33;9.77;;;;;;;6.12;100.00;103190.34;2612701;36;20146;-66
2021/10/08 07:03:05;;;;;;;15.73;10.13;;;;;;;6.16;100.00;103183.97;2612837;36;20134;-65
2021/10/08 07:05:36;;;;;;;16.63;10.80;;;;;;;6.28;100.00;103188.91;2614114;36;20574;-65
2021/10/08 07:08:04;;;;;;;20.38;11.23;;;;;;;6.31;100.00;103182.59;2613307;36;20118;-65
2021/10/08 07:13:00;;;;;;;19.17;11.90;;;;;;;6.39;100.00;103190.34;2614961;46;20038;-66
2021/10/08 07:15:30;;;;;;;18.05;11.45;;;;;;;6.47;100.00;103185.63;2613746;36;20296;-65
2021/10/08 07:17:58;;;;;;;20.60;11.25;;;;;;;6.53;100.00;103187.25;2614978;36;20536;-65
2021/10/08 07:20:28;;;;;;;19.52;11.75;;;;;;;6.65;100.00;103185.03;2613569;36;20034;-66
2021/10/08 07:23:00;;;;;;;22.23;12.45;;;;;;;6.68;100.00;103189.38;2614905;36;20137;-66
2021/10/08 07:25:29;;;;;;;22.02;11.82;;;;;;;6.76;100.00;103194.47;2614792;31;20652;-65
2021/10/08 07:27:58;;;;;;;19.52;12.23;;;;;;;6.86;100.00;103193.22;2614597;36;20117;-65
2021/10/08 07:30:27;;;;;;;23.92;12.70;;;;;;;6.88;100.00;103186.00;2614075;31;20517;-65
2021/10/08 07:32:55;;;;;;;23.92;14.00;;;;;;;7.00;100.00;103190.03;2614480;31;20145;-65
2021/10/08 07:35:23;;;;;;;23.80;13.55;;;;;;;7.01;100.00;103195.34;2614391;36;20154;-66
2021/10/08 07:37:52;;;;;;;25.33;13.98;;;;;;;7.14;100.00;103197.56;2613877;36;20034;-66
2021/10/08 07:40:22;;;;;;;27.25;15.25;;;;;;;7.28;100.00;103200.59;2614443;36;20133;-65
2021/10/08 07:42:51;;;;;;;25.05;15.27;;;;;;;7.34;100.00;103199.50;2614903;36;20057;-67
2021/10/08 07:45:19;;;;;;;24.70;14.30;;;;;;;7.52;100.00;103203.28;2614576;36;20109;-66
2021/10/08 07:47:47;;;;;;;24.95;14.85;;;;;;;7.60;100.00;103198.53;2614681;36;20038;-65
2021/10/08 07:50:16;;;;;;;25.30;14.55;;;;;;;7.61;100.00;103200.28;2614607;31;20061;-65
2021/10/08 07:52:44;;;;;;;29.87;16.40;;;;;;;7.62;100.00;103202.00;2615036;36;20034;-66
2021/10/08 07:55:13;;;;;;;27.58;15.60;;;;;;;7.76;100.00;103205.97;2614600;36;20399;-65
2021/10/08 07:57:44;;;;;;;27.50;16.42;;;;;;;7.90;100.00;103203.63;2615046;36;20129;-66
2021/10/08 08:00:14;;;;;;;26.95;15.70;;;;;;;7.98;100.00;103205.97;2615169;36;20037;-66
2021/10/08 08:02:42;;;;;;;24.98;15.35;;;;;;;8.07;100.00;103205.63;2614838;36;20435;-67
2021/10/08 08:05:11;;;;;;;29.53;16.50;;;;;;;8.14;100.00;103211.59;2614769;36;20114;-65
2021/10/08 08:07:40;;;;;;;30.25;17.02;;;;;;;8.42;100.00;103205.97;2614857;36;20311;-66
2021/10/08 08:10:13;;;;;;;26.30;15.57;;;;;;;8.43;100.00;103207.72;2613177;36;20121;-65
2021/10/08 08:12:43;;;;;;;29.85;16.67;;;;;;;8.54;100.00;103207.31;2613789;36;20642;-66
2021/10/08 08:15:14;;;;;;;30.25;16.98;;;;;;;8.74;100.00;103204.63;2614366;31;20023;-66
2021/10/08 08:17:42;;;;;;;27.38;15.23;;;;;;;8.95;100.00;103207.31;2614633;36;20404;-65
2021/10/08 08:20:11;;;;;;;25.08;14.90;;;;;;;9.03;100.00;103202.50;2613429;36;20092;-66
2021/10/08 08:22:39;;;;;;;;;;;;;;;9.30;100.00;103210.25;2613797;36;20141;-65
2021/10/08 08:25:09;;;;;;;26.77;16.10;;;;;;;9.43;100.00;103200.66;2614276;36;20601;-65
2021/10/08 08:27:37;;;;;;;30.95;16.92;;;;;;;9.49;100.00;103199.53;2614409;36;20110;-66
2021/10/08 08:32:41;;;;;;;31.33;17.52;;;;;;;9.79;100.00;103207.06;2612081;36;20034;-65
2021/10/08 08:35:11;;;;;;;31.63;18.17;;;;;;;9.92;100.00;103202.00;2614330;36;20030;-66
2021/10/08 08:37:39;;;;;;;30.50;18.88;;;;;;;10.09;100.00;103204.75;2613241;36;20034;-65
2021/10/08 08:40:09;;;;;;;30.10;17.97;;;;;;;10.27;100.00;103200.25;2612761;36;20134;-65
2021/10/08 08:42:38;;;;;;;36.47;20.05;;;;;;;10.40;100.00;103202.38;2613887;36;20085;-65
2021/10/08 08:45:10;;;;;;;36.72;20.35;;;;;;;10.40;100.00;103200.56;2614696;36;20118;-65
2021/10/08 08:47:38;;;;;;;34.15;20.25;;;;;;;10.54;100.00;103193.59;2613898;36;20129;-65
2021/10/08 08:50:08;;;;;;;35.38;20.92;;;;;;;10.69;100.00;103182.03;2612834;31;20030;-65
2021/10/08 08:52:36;;;;;;;37.67;19.95;;;;;;;10.85;100.00;103199.16;2614251;36;20653;-66
2021/10/08 08:55:05;;;;;;;31.15;18.20;;;;;;;11.14;100.00;103188.63;2614106;31;20126;-65
2021/10/08 08:57:33;;;;;;;34.55;18.42;;;;;;;11.18;100.00;103182.13;2614626;36;20042;-65
2021/10/08 09:00:04;;;;;;;32.60;17.75;;;;;;;11.26;100.00;103183.53;2614683;36;20058;-65
2021/10/08 09:02:37;;;;;;;34.50;18.88;;;;;;;11.33;100.00;103177.72;2615573;36;20470;-64
2021/10/08 09:05:06;;;;;;;30.52;16.63;;;;;;;11.43;100.00;103183.47;2615345;36;20245;-65
2021/10/08 09:07:37;;;;;;;32.00;17.88;;;;;;;11.53;100.00;103186.56;2614588;36;20166;-65
2021/10/08 09:10:13;;;;;;;32.38;18.38;;;;;;;11.62;100.00;103187.88;2614618;36;20030;-65
2021/10/08 09:12:43;;;;;;;34.05;19.63;;;;;;;11.76;100.00;103185.25;2614677;36;20041;-66
2021/10/08 09:15:12;;;;;;;33.45;19.23;;;;;;;12.04;100.00;103175.59;2615569;36;20153;-64
2021/10/08 09:17:43;;;;;;;;;;;;;;;12.09;100.00;103176.22;2614985;36;20046;-65
2021/10/08 09:20:13;;;;;;;29.65;18.17;;;;;;;12.23;100.00;103184.41;2614741;36;20062;-65
2021/10/08 09:22:55;;;;;;;32.45;18.73;;;;;;;12.40;100.00;103179.81;2615454;36;20037;-66
2021/10/08 09:25:30;;;;;;;26.27;16.50;;;;;;;12.56;100.00;103172.53;2614828;32;20658;-64
2021/10/08 09:28:01;;;;;;;30.10;16.33;;;;;;;12.69;100.00;103169.97;2615429;31;20035;-65
2021/10/08 09:30:38;;;;;;;29.20;16.65;;;;;;;12.80;100.00;103177.41;2614985;36;20031;-65
2021/10/08 09:33:10;;;;;;;26.85;16.33;;;;;;;12.97;100.00;103177.25;2614021;36;20069;-65
2021/10/08 09:35:41;;;;;;;26.10;16.30;;;;;;;13.12;100.00;103174.56;2614408;36;20141;-66
2021/10/08 09:38:12;;;;;;;26.98;16.40;;;;;;;13.30;100.00;103167.97;2613502;36;20482;-64
2021/10/08 09:40:45;;;;;;;28.00;17.58;;;;;;;13.38;100.00;103172.06;2614329;36;20041;-66
2021/10/08 09:43:16;;;;;;;26.45;16.75;;;;;;;13.44;100.00;103169.84;2613514;36;20031;-66
2021/10/08 09:45:47;;;;;;;25.25;15.85;;;;;;;13.57;100.00;103167.19;2614558;36;20618;-64
2021/10/08 09:48:18;;;;;;;27.38;15.68;;;;;;;13.69;100.00;103170.09;2613294;36;20573;-65
2021/10/08 09:51:05;;;;;;;27.08;16.42;;;;;;;13.71;100.00;103173.59;2614633;36;20031;-67
2021/10/08 09:53:35;;;;;;;24.45;15.80;;;;;;;13.94;100.00;103167.53;2614747;36;20057;-64
2021/10/08 09:56:03;;;;;;;23.58;15.38;;;;;;;14.00;100.00;103171.63;2614943;36;20837;-65
2021/10/08 09:58:53;;;;;;;23.60;13.90;;;;;;;14.02;100.00;103167.88;2614611;36;20221;-66
2021/10/08 10:01:26;;;;;;;22.58;13.35;;;;;;;14.19;100.00;103161.34;2614932;36;20030;-63
2021/10/08 10:03:57;;;;;;;22.88;13.27;;;;;;;14.19;100.00;103172.16;2615342;31;20114;-70
2021/10/08 10:06:26;;;;;;;21.20;13.07;;;;;;;14.14;100.00;103176.16;2613297;36;20034;-65
2021/10/08 10:08:55;;;;;;;20.75;13.55;;;;;;;14.30;100.00;103160.59;2613824;36;20034;-64
2021/10/08 10:11:26;;;;;;;19.45;13.05;;;;;;;14.40;100.00;103168.09;2613762;36;20363;-64
2021/10/08 10:13:59;;;;;;;19.77;14.40;;;;;;;14.45;100.00;103163.25;2614243;31;20126;-64
2021/10/08 10:16:29;;;;;;;20.02;11.85;;;;;;;14.57;100.00;103173.22;2613672;36;20462;-67
2021/10/08 10:19:01;;;;;;;18.58;12.80;;;;;;;14.66;100.00;103167.22;2612094;36;20030;-65
2021/10/08 10:21:33;;;;;;;17.25;11.95;;;;;;;14.76;100.00;103166.56;2612876;36;20509;-65
2021/10/08 10:24:04;;;;;;;20.13;12.63;;;;;;;14.80;100.00;103158.13;2613141;36;20038;-67
2021/10/08 10:26:35;;;;;;;18.95;13.25;;;;;;;14.76;100.00;103161.16;2613277;36;20038;-68
2021/10/08 10:29:04;;;;;;;18.90;12.70;;;;;;;14.76;100.00;103156.59;2614105;36;20038;-64
2021/10/08 10:31:35;;;;;;;21.38;13.40;;;;;;;14.85;100.00;103157.78;2613811;36;20030;-65
2021/10/08 10:34:06;;;;;;;15.52;11.07;;;;;;;14.94;100.00;103159.84;2613912;36;20046;-65
2021/10/08 10:36:40;;;;;;;17.75;11.80;;;;;;;15.03;100.00;103153.78;2613638;36;20081;-68
2021/10/08 10:39:20;;;;;;;18.95;12.20;;;;;;;15.23;100.00;103156.91;2613112;36;20186;-65
2021/10/08 10:41:50;;;;;;;15.48;11.20;;;;;;;15.29;100.00;103148.31;2613740;36;20387;-65
2021/10/08 10:44:22;;;;;;;14.52;9.98;;;;;;;15.27;100.00;103150.28;2613428;31;20713;-66
2021/10/08 10:52:29;;;;;;;14.00;10.10;;;;;;;15.49;100.00;103152.31;2614529;36;20068;-68
2021/10/08 10:58:00;;;;;;;16.25;10.40;;;;;;;15.68;100.00;103150.94;2613068;36;20039;-65
2021/10/08 11:00:32;;;;;;;12.30;8.88;;;;;;;15.88;100.00;103141.34;2614229;36;20625;-65
2021/10/08 11:03:12;;;;;;;17.27;11.82;;;;;;;15.94;100.00;103143.59;2614529;36;20049;-65
2021/10/08 11:06:04;;;;;;;13.57;9.48;;;;;;;16.10;100.00;103144.16;2614706;36;20058;-66
2021/10/08 11:08:33;;;;;;;14.52;10.52;;;;;;;16.04;100.00;103147.34;2613238;36;20058;-67
2021/10/08 11:11:25;;;;;;;11.87;8.87;;;;;;;16.11;100.00;103142.34;2614337;36;20149;-66
2021/10/08 11:13:53;;;;;;;12.68;8.73;;;;;;;16.31;100.00;103145.38;2614815;36;20517;-69
2021/10/08 11:16:33;;;;;;;10.88;8.13;;;;;;;16.35;100.00;103142.28;2615168;36;20553;-65
2021/10/08 11:19:02;;;;;;;12.45;9.27;;;;;;;16.29;100.00;103140.91;2615186;36;20030;-66
2021/10/08 11:21:45;;;;;;;;;;;;;;;16.42;100.00;103138.13;2614838;36;20037;-66
2021/10/08 11:24:20;;;;;;;13.73;8.52;;;;;;;16.40;100.00;103140.09;2614230;36;20046;-66
2021/10/08 11:27:00;;;;;;;12.05;8.90;;;;;;;16.27;100.00;103137.44;2614848;36;20056;-66
2021/10/08 11:29:30;;;;;;;12.05;8.75;;;;;;;16.16;100.00;103141.97;2615120;36;20416;-67
2021/10/08 11:32:10;;;;;;;8.85;7.18;;;;;;;16.33;100.00;103129.78;2615050;36;20026;-67
2021/10/08 11:34:53;;;;;;;8.98;6.32;;;;;;;16.09;100.00;103131.59;2614635;31;20031;-66
2021/10/08 11:37:21;;;;;;;10.23;6.28;;;;;;;16.12;100.00;103138.59;2614794;36;20034;-70